Time;durP1;ratioP1;P1;durP2;ratioP2;P2;SDS_P1;SDS_P2;PMS_P1;PMS_P2;Temp;Humidity;BMP_temperature;BMP_pressure;BME280_temperature;BME280_humidity;BME280_pressure;Samples;Min_cycle;Max_cycle;Signal;HPM_P1;HPM_P2
2023/10/19 00:02:03;;;;;;;2.53;2.33;;;;;;;;;;5064848;28;20201;-80
2023/10/19 00:04:34;;;;;;;3.07;2.80;;;;;;;;;;5058142;28;20205;-81
2023/10/19 00:07:00;;;;;;;2.47;2.10;;;;;;;;;;5063614;28;20213;-80
2023/10/19 00:09:35;;;;;;;1.53;1.43;;;;;;;;;;5059169;28;20198;-80
2023/10/19 00:12:02;;;;;;;1.80;1.70;;;;;;;;;;5061321;28;20208;-80
2023/10/19 00:14:29;;;;;;;2.87;2.00;;;;;;;;;;5062856;28;20695;-80
2023/10/19 00:17:00;;;;;;;2.97;2.70;;;;;;;;;;5060625;28;20198;-81
2023/10/19 00:19:27;;;;;;;3.57;2.00;;;;;;;;;;5064200;28;20201;-81
2023/10/19 00:21:58;;;;;;;2.40;2.20;;;;;;;;;;5062442;28;20201;-80
2023/10/19 00:24:31;;;;;;;6.50;2.23;;;;;;;;;;5059585;28;20727;-80
2023/10/19 00:27:05;;;;;;;2.20;2.10;;;;;;;;;;5061058;28;20209;-80
2023/10/19 00:29:31;;;;;;;2.50;1.80;;;;;;;;;;5061775;28;20282;-80
2023/10/19 00:31:59;;;;;;;2.33;2.03;;;;;;;;;;5060853;28;20205;-80
2023/10/19 00:34:26;;;;;;;2.30;2.10;;;;;;;;;;5059096;28;20213;-81
2023/10/19 00:36:55;;;;;;;2.87;2.00;;;;;;;;;;5054623;28;20587;-80
2023/10/19 00:39:24;;;;;;;3.27;2.60;;;;;;;;;;5059409;28;20293;-80
2023/10/19 00:41:53;;;;;;;4.23;2.03;;;;;;;;;;5063990;28;20755;-80
2023/10/19 00:44:30;;;;;;;3.40;2.23;;;;;;;;;;5064479;28;20228;-80
2023/10/19 00:47:03;;;;;;;2.60;2.13;;;;;;;;;;5059670;28;20205;-80
2023/10/19 00:49:31;;;;;;;2.37;2.17;;;;;;;;;;5063448;28;20217;-80
2023/10/19 00:52:03;;;;;;;2.57;2.37;;;;;;;;;;5067329;28;20212;-80
2023/10/19 00:54:35;;;;;;;1.83;1.60;;;;;;;;;;5071036;28;20198;-81
2023/10/19 00:57:08;;;;;;;4.03;2.20;;;;;;;;;;5054024;28;20229;-80
2023/10/19 00:59:39;;;;;;;2.17;2.07;;;;;;;;;;5052517;28;20680;-81
2023/10/19 01:02:19;;;;;;;2.53;2.33;;;;;;;;;;5059359;28;20279;-81
2023/10/19 01:04:50;;;;;;;2.63;2.43;;;;;;;;;;5041769;28;20207;-81
2023/10/19 01:07:22;;;;;;;2.17;2.00;;;;;;;;;;5065187;28;20194;-81
2023/10/19 01:09:52;;;;;;;2.80;2.27;;;;;;;;;;5053461;28;20267;-81
2023/10/19 01:12:29;;;;;;;3.33;2.33;;;;;;;;;;5066182;28;20194;-81
2023/10/19 01:15:07;;;;;;;2.40;2.20;;;;;;;;;;5073502;28;20213;-81
2023/10/19 01:17:38;;;;;;;3.30;1.97;;;;;;;;;;5065220;28;20229;-80
2023/10/19 01:20:17;;;;;;;2.53;2.20;;;;;;;;;;5073562;28;20213;-81
2023/10/19 01:22:52;;;;;;;2.10;1.90;;;;;;;;;;5073324;28;20220;-87
2023/10/19 01:25:24;;;;;;;2.97;2.70;;;;;;;;;;5062653;28;20192;-81
2023/10/19 01:27:57;;;;;;;2.50;2.30;;;;;;;;;;5062082;28;20229;-81
2023/10/19 01:30:24;;;;;;;2.20;2.10;;;;;;;;;;5058698;28;20233;-80
2023/10/19 01:32:51;;;;;;;4.40;2.53;;;;;;;;;;5067365;28;20201;-80
2023/10/19 01:35:19;;;;;;;3.47;3.13;;;;;;;;;;5066786;28;20703;-80
2023/10/19 01:37:46;;;;;;;3.77;2.40;;;;;;;;;;5054652;28;20206;-81
2023/10/19 01:40:20;;;;;;;3.20;2.90;;;;;;;;;;5059101;28;20220;-80
2023/10/19 01:42:45;;;;;;;2.80;2.57;;;;;;;;;;5072490;28;20700;-81
2023/10/19 01:45:12;;;;;;;3.37;2.47;;;;;;;;;;5072789;28;20262;-80
2023/10/19 01:47:40;;;;;;;4.23;2.73;;;;;;;;;;5059262;28;20210;-81
2023/10/19 01:50:19;;;;;;;3.50;3.07;;;;;;;;;;5072743;28;20603;-80
2023/10/19 01:52:47;;;;;;;5.33;2.97;;;;;;;;;;5067811;28;20201;-81
2023/10/19 01:55:13;;;;;;;3.10;2.80;;;;;;;;;;5072970;28;20197;-80
2023/10/19 01:57:40;;;;;;;2.67;2.43;;;;;;;;;;5072568;28;20200;-80
2023/10/19 02:00:11;;;;;;;2.80;2.60;;;;;;;;;;5062942;28;20201;-81
2023/10/19 02:02:38;;;;;;;4.40;2.10;;;;;;;;;;5069226;28;20197;-81
2023/10/19 02:05:09;;;;;;;3.93;2.50;;;;;;;;;;5072942;28;20617;-80
2023/10/19 02:07:36;;;;;;;2.73;2.53;;;;;;;;;;5071394;28;20204;-80
2023/10/19 02:10:07;;;;;;;3.00;2.70;;;;;;;;;;5072251;28;20216;-80
2023/10/19 02:12:34;;;;;;;5.20;2.80;;;;;;;;;;5066735;28;20205;-80
2023/10/19 02:15:00;;;;;;;5.37;3.20;;;;;;;;;;5064937;28;20702;-80
2023/10/19 02:17:27;;;;;;;4.97;3.07;;;;;;;;;;5053159;28;20293;-81
2023/10/19 02:19:53;;;;;;;5.20;3.50;;;;;;;;;;5065277;28;20205;-80
2023/10/19 02:22:20;;;;;;;2.80;2.37;;;;;;;;;;5065803;28;20213;-81
2023/10/19 02:24:46;;;;;;;3.60;3.30;;;;;;;;;;5065388;28;20641;-81
2023/10/19 02:27:14;;;;;;;10.23;7.60;;;;;;;;;;5066365;28;20210;-80
2023/10/19 02:29:41;;;;;;;9.53;7.70;;;;;;;;;;5065443;28;20207;-80
2023/10/19 02:32:07;;;;;;;6.77;6.03;;;;;;;;;;5065006;28;20864;-80
2023/10/19 02:34:34;;;;;;;3.60;3.23;;;;;;;;;;5064642;28;20201;-81
2023/10/19 02:37:02;;;;;;;5.80;4.30;;;;;;;;;;5071362;28;20767;-80
2023/10/19 02:39:28;;;;;;;12.07;7.30;;;;;;;;;;5062518;28;20201;-80
2023/10/19 02:41:55;;;;;;;6.53;4.53;;;;;;;;;;5045037;28;20208;-81
2023/10/19 02:44:23;;;;;;;5.57;4.40;;;;;;;;;;5070287;28;20596;-80
2023/10/19 02:46:52;;;;;;;6.37;5.07;;;;;;;;;;5070776;28;20300;-80
2023/10/19 02:49:20;;;;;;;5.23;4.37;;;;;;;;;;5069572;28;20312;-80
2023/10/19 02:51:47;;;;;;;5.57;4.13;;;;;;;;;;5059922;28;20211;-81
2023/10/19 02:54:19;;;;;;;4.43;3.30;;;;;;;;;;5071278;28;20216;-80
2023/10/19 02:56:48;;;;;;;2.57;2.30;;;;;;;;;;5070865;28;21721;-84
2023/10/19 02:59:15;;;;;;;3.10;2.73;;;;;;;;;;5070391;28;20197;-80
2023/10/19 03:01:45;;;;;;;3.00;2.80;;;;;;;;;;5071291;28;20762;-80
2023/10/19 03:04:13;;;;;;;3.30;2.77;;;;;;;;;;5053722;28;20226;-81
2023/10/19 03:06:40;;;;;;;15.67;13.17;;;;;;;;;;5051737;28;20202;-80
2023/10/19 03:09:13;;;;;;;21.27;17.17;;;;;;;;;;5057347;28;20220;-80
2023/10/19 03:11:40;;;;;;;9.87;8.43;;;;;;;;;;5062626;28;20267;-80
2023/10/19 03:14:08;;;;;;;5.20;3.90;;;;;;;;;;5058124;28;20210;-80
2023/10/19 03:16:35;;;;;;;3.50;3.20;;;;;;;;;;5060540;28;20259;-80
2023/10/19 03:19:04;;;;;;;4.03;3.40;;;;;;;;;;5058515;28;20747;-81
2023/10/19 03:21:33;;;;;;;5.13;4.63;;;;;;;;;;5061870;28;20664;-81
2023/10/19 03:24:05;;;;;;;4.80;4.40;;;;;;;;;;5058966;28;20667;-80
2023/10/19 03:26:31;;;;;;;5.57;3.87;;;;;;;;;;5066633;28;20205;-80
2023/10/19 03:29:02;;;;;;;4.03;3.63;;;;;;;;;;5068361;28;20201;-81
2023/10/19 03:31:28;;;;;;;3.43;3.13;;;;;;;;;;5067070;28;20205;-80
2023/10/19 03:33:55;;;;;;;2.63;2.43;;;;;;;;;;5045953;28;20224;-81
2023/10/19 03:36:27;;;;;;;2.97;2.67;;;;;;;;;;5067556;28;20209;-81
2023/10/19 03:38:54;;;;;;;3.07;2.73;;;;;;;;;;5068837;28;20679;-79
2023/10/19 03:41:26;;;;;;;2.63;2.43;;;;;;;;;;5052154;28;20202;-80
2023/10/19 03:43:57;;;;;;;3.57;2.77;;;;;;;;;;5047971;28;20220;-78
2023/10/19 03:46:28;;;;;;;3.47;2.87;;;;;;;;;;5067010;28;20205;-79
2023/10/19 03:48:58;;;;;;;3.00;2.50;;;;;;;;;;5063345;28;20231;-87
2023/10/19 03:51:27;;;;;;;4.63;4.00;;;;;;;;;;5060026;28;20296;-82
2023/10/19 03:53:58;;;;;;;2.80;2.60;;;;;;;;;;5055468;28;20701;-81
2023/10/19 03:56:25;;;;;;;3.47;3.17;;;;;;;;;;5058324;28;20214;-78
2023/10/19 03:58:51;;;;;;;4.00;3.33;;;;;;;;;;5063666;28;20293;-78
2023/10/19 04:01:19;;;;;;;4.20;2.83;;;;;;;;;;5062463;28;20197;-81
2023/10/19 04:03:47;;;;;;;3.37;3.07;;;;;;;;;;5067047;28;20225;-81
2023/10/19 04:06:14;;;;;;;3.50;3.20;;;;;;;;;;5060466;28;20296;-80
2023/10/19 04:08:45;;;;;;;5.40;4.20;;;;;;;;;;5070424;28;20226;-80
2023/10/19 04:11:21;;;;;;;4.20;3.77;;;;;;;;;;5058249;28;20248;-87
2023/10/19 04:13:52;;;;;;;6.07;5.50;;;;;;;;;;5064430;28;20209;-79
2023/10/19 04:16:20;;;;;;;7.90;3.83;;;;;;;;;;5060009;28;20231;-78
2023/10/19 04:18:49;;;;;;;3.60;3.20;;;;;;;;;;5050432;28;20718;-78
2023/10/19 04:21:16;;;;;;;3.53;3.23;;;;;;;;;;5055012;28;20209;-82
2023/10/19 04:23:46;;;;;;;4.80;3.83;;;;;;;;;;5055830;28;20221;-79
2023/10/19 04:26:14;;;;;;;3.70;3.33;;;;;;;;;;5071923;28;20205;-79
2023/10/19 04:28:49;;;;;;;5.57;4.27;;;;;;;;;;5044107;28;20256;-77
2023/10/19 04:31:16;;;;;;;5.73;3.93;;;;;;;;;;5065204;28;20266;-80
2023/10/19 04:33:45;;;;;;;6.07;3.70;;;;;;;;;;5071572;28;20201;-76
2023/10/19 04:36:13;;;;;;;4.60;3.63;;;;;;;;;;5061505;28;20213;-79
2023/10/19 04:38:40;;;;;;;5.80;3.80;;;;;;;;;;5074015;28;20274;-78
2023/10/19 04:41:10;;;;;;;6.50;3.70;;;;;;;;;;5070389;28;20239;-83
2023/10/19 04:43:38;;;;;;;4.17;3.30;;;;;;;;;;5070520;28;20224;-81
2023/10/19 04:46:10;;;;;;;5.13;3.07;;;;;;;;;;5072153;28;20204;-78
2023/10/19 04:48:39;;;;;;;4.57;3.50;;;;;;;;;;5064270;28;20201;-78
2023/10/19 04:51:06;;;;;;;4.53;3.10;;;;;;;;;;5057947;28;20637;-76
2023/10/19 04:53:33;;;;;;;5.13;3.23;;;;;;;;;;5072696;28;20213;-77
2023/10/19 04:56:00;;;;;;;4.23;3.17;;;;;;;;;;5071010;28;20218;-77
2023/10/19 04:58:29;;;;;;;6.30;3.37;;;;;;;;;;5071919;28;20270;-77
2023/10/19 05:00:58;;;;;;;6.57;5.97;;;;;;;;;;5072598;28;20234;-76
2023/10/19 05:03:26;;;;;;;9.00;8.20;;;;;;;;;;5073103;28;20223;-79
2023/10/19 05:05:53;;;;;;;7.53;6.83;;;;;;;;;;5070917;28;20193;-77
2023/10/19 05:08:20;;;;;;;7.80;7.10;;;;;;;;;;5061044;28;20198;-77
2023/10/19 05:10:48;;;;;;;6.63;5.90;;;;;;;;;;5063600;28;20262;-77
2023/10/19 05:13:15;;;;;;;7.37;6.43;;;;;;;;;;5071773;28;20894;-77
2023/10/19 05:15:43;;;;;;;5.43;4.93;;;;;;;;;;5072258;28;20201;-78
2023/10/19 05:18:10;;;;;;;5.17;4.63;;;;;;;;;;5072165;28;20201;-78
2023/10/19 05:20:40;;;;;;;4.63;3.97;;;;;;;;;;5072247;28;20209;-77
2023/10/19 05:23:08;;;;;;;6.70;3.87;;;;;;;;;;5071968;28;20735;-78
2023/10/19 05:25:34;;;;;;;3.70;3.40;;;;;;;;;;5072055;28;20220;-80
2023/10/19 05:28:02;;;;;;;6.03;4.03;;;;;;;;;;5072230;28;20660;-79
2023/10/19 05:30:29;;;;;;;6.50;4.43;;;;;;;;;;5060140;28;20221;-79
2023/10/19 05:32:58;;;;;;;4.50;4.10;;;;;;;;;;5042032;28;20202;-80
2023/10/19 05:35:26;;;;;;;5.80;5.00;;;;;;;;;;5066238;28;20258;-80
2023/10/19 05:37:53;;;;;;;4.57;3.97;;;;;;;;;;5059609;28;20585;-79
2023/10/19 05:40:20;;;;;;;6.57;4.47;;;;;;;;;;5072583;28;20594;-81
2023/10/19 05:42:47;;;;;;;5.90;5.23;;;;;;;;;;5072281;28;20202;-79
2023/10/19 05:45:16;;;;;;;6.43;5.83;;;;;;;;;;5058942;28;20320;-76
2023/10/19 05:47:44;;;;;;;6.53;4.77;;;;;;;;;;5072239;28;20560;-77
2023/10/19 05:50:14;;;;;;;5.13;4.00;;;;;;;;;;5072818;28;20284;-77
2023/10/19 05:52:42;;;;;;;6.73;3.80;;;;;;;;;;5072286;28;20844;-77
2023/10/19 05:55:10;;;;;;;5.70;5.00;;;;;;;;;;5072431;28;20597;-77
2023/10/19 05:57:40;;;;;;;6.97;5.63;;;;;;;;;;5068851;28;20292;-76
2023/10/19 06:00:13;;;;;;;8.97;6.47;;;;;;;;;;5064576;28;20201;-77
2023/10/19 06:02:43;;;;;;;7.13;6.43;;;;;;;;;;5067034;28;20586;-77
2023/10/19 06:05:12;;;;;;;8.70;7.57;;;;;;;;;;5071685;28;20666;-73
2023/10/19 06:07:39;;;;;;;11.80;10.37;;;;;;;;;;5071909;28;20198;-79
2023/10/19 06:10:07;;;;;;;10.40;8.00;;;;;;;;;;5071493;28;20200;-77
2023/10/19 06:12:34;;;;;;;7.77;5.90;;;;;;;;;;5071218;28;20208;-77
2023/10/19 06:15:01;;;;;;;8.17;5.97;;;;;;;;;;5072014;28;20205;-80
2023/10/19 06:17:28;;;;;;;6.50;5.53;;;;;;;;;;5071606;28;20205;-80
2023/10/19 06:19:55;;;;;;;6.37;5.73;;;;;;;;;;5071378;28;20228;-77
2023/10/19 06:22:23;;;;;;;6.57;5.77;;;;;;;;;;5071443;28;20208;-82
2023/10/19 06:24:51;;;;;;;6.20;5.50;;;;;;;;;;5046271;28;20235;-78
2023/10/19 06:27:18;;;;;;;7.37;5.90;;;;;;;;;;5065354;28;20204;-82
2023/10/19 06:29:45;;;;;;;5.50;5.00;;;;;;;;;;5071268;28;20197;-76
2023/10/19 06:32:12;;;;;;;15.17;10.30;;;;;;;;;;5071811;28;20201;-76
2023/10/19 06:34:40;;;;;;;32.60;19.93;;;;;;;;;;5071572;28;20708;-76
2023/10/19 06:37:10;;;;;;;21.53;13.90;;;;;;;;;;5069407;28;20611;-78
2023/10/19 06:39:40;;;;;;;13.67;10.97;;;;;;;;;;5063286;28;20201;-76
2023/10/19 06:42:13;;;;;;;12.57;9.83;;;;;;;;;;5071128;28;20649;-77
2023/10/19 06:44:40;;;;;;;8.80;6.83;;;;;;;;;;5071378;28;20311;-77
2023/10/19 06:47:06;;;;;;;6.97;6.27;;;;;;;;;;5070980;28;20201;-77
2023/10/19 06:49:34;;;;;;;7.67;6.87;;;;;;;;;;5070079;28;20268;-78
2023/10/19 06:52:01;;;;;;;17.47;7.30;;;;;;;;;;5071229;28;20209;-76
2023/10/19 06:54:29;;;;;;;9.27;6.60;;;;;;;;;;5069195;28;20209;-77
2023/10/19 06:56:57;;;;;;;7.07;6.03;;;;;;;;;;5070619;28;20201;-76
2023/10/19 06:59:24;;;;;;;7.97;6.60;;;;;;;;;;5053636;28;20213;-76
2023/10/19 07:01:51;;;;;;;12.90;7.20;;;;;;;;;;5050822;28;20237;-79
2023/10/19 07:04:18;;;;;;;11.53;7.77;;;;;;;;;;5066037;28;20704;-80
2023/10/19 07:06:45;;;;;;;7.93;7.23;;;;;;;;;;5069078;28;20199;-76
2023/10/19 07:09:11;;;;;;;13.87;8.77;;;;;;;;;;5070488;28;20590;-76
2023/10/19 07:11:38;;;;;;;10.10;7.80;;;;;;;;;;5070421;28;20289;-77
2023/10/19 07:14:07;;;;;;;9.47;7.07;;;;;;;;;;5070325;28;20211;-77
2023/10/19 07:16:34;;;;;;;8.73;6.70;;;;;;;;;;5044445;28;20201;-77
2023/10/19 07:19:01;;;;;;;11.43;6.37;;;;;;;;;;5057025;28;20213;-80
2023/10/19 07:21:31;;;;;;;10.57;6.70;;;;;;;;;;5070862;28;20201;-76
2023/10/19 07:24:01;;;;;;;7.07;5.83;;;;;;;;;;5067138;28;20255;-77
2023/10/19 07:26:31;;;;;;;11.43;7.07;;;;;;;;;;5061799;28;20739;-84
2023/10/19 07:28:58;;;;;;;8.87;6.93;;;;;;;;;;5054958;28;20775;-83
2023/10/19 07:31:27;;;;;;;12.80;8.23;;;;;;;;;;5070354;28;20204;-83
2023/10/19 07:33:55;;;;;;;9.17;8.00;;;;;;;;;;5070597;28;20197;-81
2023/10/19 07:36:24;;;;;;;7.67;6.77;;;;;;;;;;5070157;28;20211;-82
2023/10/19 07:38:51;;;;;;;8.73;7.83;;;;;;;;;;5070085;28;20197;-79
2023/10/19 07:41:18;;;;;;;9.73;6.70;;;;;;;;;;5069656;28;20205;-81
2023/10/19 07:43:45;;;;;;;8.20;7.43;;;;;;;;;;5059960;28;20643;-80
2023/10/19 07:46:12;;;;;;;8.47;6.87;;;;;;;;;;5069435;28;20224;-83
2023/10/19 07:48:41;;;;;;;7.33;6.37;;;;;;;;;;5057506;28;20209;-85
2023/10/19 07:51:11;;;;;;;7.33;6.60;;;;;;;;;;5066507;28;20232;-87
2023/10/19 07:53:37;;;;;;;8.33;6.33;;;;;;;;;;5071391;28;20205;-86
2023/10/19 07:56:05;;;;;;;11.67;5.97;;;;;;;;;;5054330;28;20225;-82
2023/10/19 07:58:32;;;;;;;6.13;5.40;;;;;;;;;;5050934;28;20676;-87
2023/10/19 08:00:59;;;;;;;5.67;5.07;;;;;;;;;;5071579;28;20640;-83
2023/10/19 08:03:25;;;;;;;5.27;4.57;;;;;;;;;;5075288;28;20209;-83
2023/10/19 08:05:54;;;;;;;5.30;4.80;;;;;;;;;;5071168;28;20615;-83
2023/10/19 08:08:21;;;;;;;6.37;5.87;;;;;;;;;;5054740;28;20714;-83
2023/10/19 08:10:48;;;;;;;5.43;4.93;;;;;;;;;;5068347;28;20285;-84
2023/10/19 08:13:15;;;;;;;8.30;5.23;;;;;;;;;;5054590;28;20643;-85
2023/10/19 08:15:42;;;;;;;5.83;5.07;;;;;;;;;;5068151;28;20213;-84
2023/10/19 08:18:12;;;;;;;6.10;5.50;;;;;;;;;;5054374;28;20214;-83
2023/10/19 08:20:39;;;;;;;5.07;4.33;;;;;;;;;;5067663;28;20205;-82
2023/10/19 08:23:07;;;;;;;8.03;5.30;;;;;;;;;;5066332;28;20288;-86
2023/10/19 08:25:34;;;;;;;10.27;4.67;;;;;;;;;;5055396;28;20225;-83
2023/10/19 08:28:01;;;;;;;4.10;3.80;;;;;;;;;;5066620;28;20201;-84
2023/10/19 08:30:28;;;;;;;4.97;4.23;;;;;;;;;;5073766;28;20197;-83
2023/10/19 08:32:57;;;;;;;4.87;4.20;;;;;;;;;;5073636;28;20204;-82
2023/10/19 08:35:25;;;;;;;4.73;3.87;;;;;;;;;;5073567;28;20209;-76
2023/10/19 08:37:52;;;;;;;5.03;4.53;;;;;;;;;;5074059;28;20560;-76
2023/10/19 08:40:21;;;;;;;4.33;3.83;;;;;;;;;;5067034;28;20204;-82
2023/10/19 08:42:49;;;;;;;7.03;4.53;;;;;;;;;;5067127;28;20734;-83
2023/10/19 08:45:16;;;;;;;4.03;3.63;;;;;;;;;;5073489;28;20677;-78
2023/10/19 08:47:47;;;;;;;5.17;4.60;;;;;;;;;;5073079;28;20614;-79
2023/10/19 08:50:15;;;;;;;6.03;5.47;;;;;;;;;;5073359;28;20311;-81
2023/10/19 08:52:42;;;;;;;6.50;4.97;;;;;;;;;;5071077;28;20703;-81
2023/10/19 08:55:12;;;;;;;9.87;5.00;;;;;;;;;;5062455;28;20701;-81
2023/10/19 08:57:42;;;;;;;49.50;14.77;;;;;;;;;;5072914;28;20759;-83
2023/10/19 09:00:11;;;;;;;6.87;5.07;;;;;;;;;;5063906;28;20202;-83
2023/10/19 09:02:38;;;;;;;5.17;4.67;;;;;;;;;;5069984;28;20710;-81
2023/10/19 09:05:08;;;;;;;5.77;5.17;;;;;;;;;;5073528;28;20257;-81
2023/10/19 09:07:36;;;;;;;7.63;6.03;;;;;;;;;;5072831;28;20208;-82
2023/10/19 09:10:05;;;;;;;12.80;7.70;;;;;;;;;;5073536;28;20212;-83
2023/10/19 09:12:32;;;;;;;6.53;5.17;;;;;;;;;;5059444;28;20207;-87
2023/10/19 09:15:00;;;;;;;10.27;5.63;;;;;;;;;;5066923;28;20671;-81
2023/10/19 09:17:31;;;;;;;10.27;6.03;;;;;;;;;;5072927;28;20209;-81
2023/10/19 09:19:59;;;;;;;6.30;5.57;;;;;;;;;;5061167;28;20296;-80
2023/10/19 09:22:26;;;;;;;5.50;5.00;;;;;;;;;;5059143;28;20306;-80
2023/10/19 09:24:55;;;;;;;6.00;5.40;;;;;;;;;;5072189;28;20201;-78
2023/10/19 09:27:22;;;;;;;7.50;5.50;;;;;;;;;;5061630;28;20209;-81
2023/10/19 09:29:51;;;;;;;5.87;5.10;;;;;;;;;;5073476;28;20733;-82
2023/10/19 09:32:19;;;;;;;5.87;5.40;;;;;;;;;;5070869;28;20209;-81
2023/10/19 09:34:47;;;;;;;5.63;4.90;;;;;;;;;;5061953;28;20232;-84
2023/10/19 09:37:15;;;;;;;5.03;4.63;;;;;;;;;;5072786;28;20331;-84
2023/10/19 09:39:43;;;;;;;4.67;4.13;;;;;;;;;;5063188;28;20201;-83
2023/10/19 09:42:12;;;;;;;5.80;5.30;;;;;;;;;;5068749;28;20300;-78
2023/10/19 09:44:43;;;;;;;4.73;4.33;;;;;;;;;;5071717;28;20366;-82
2023/10/19 09:47:12;;;;;;;6.77;4.23;;;;;;;;;;5068757;28;20223;-78
2023/10/19 09:49:42;;;;;;;5.70;5.20;;;;;;;;;;5072263;28;20239;-80
2023/10/19 09:52:11;;;;;;;7.53;4.77;;;;;;;;;;5072061;28;20208;-79
2023/10/19 09:54:52;;;;;;;5.07;4.60;;;;;;;;;;5072359;28;20596;-80
2023/10/19 09:57:31;;;;;;;6.33;5.40;;;;;;;;;;5071974;28;20211;-79
2023/10/19 10:00:08;;;;;;;6.20;4.97;;;;;;;;;;5063659;28;20216;-77
2023/10/19 10:02:35;;;;;;;8.17;5.07;;;;;;;;;;5055442;28;20259;-77
2023/10/19 10:05:05;;;;;;;11.10;6.87;;;;;;;;;;5050822;28;20281;-77
2023/10/19 10:07:32;;;;;;;5.30;4.80;;;;;;;;;;5054440;28;20221;-77
2023/10/19 10:10:01;;;;;;;6.10;5.27;;;;;;;;;;5053038;28;20208;-76
2023/10/19 10:12:28;;;;;;;5.90;5.20;;;;;;;;;;5054746;28;20217;-77
2023/10/19 10:15:01;;;;;;;5.23;4.73;;;;;;;;;;5053271;28;20202;-78
2023/10/19 10:17:28;;;;;;;6.27;5.43;;;;;;;;;;5060731;28;20209;-78
2023/10/19 10:19:59;;;;;;;6.27;4.83;;;;;;;;;;5060575;28;20202;-75
2023/10/19 10:22:27;;;;;;;5.83;5.30;;;;;;;;;;5050489;28;20625;-81
2023/10/19 10:24:57;;;;;;;4.90;4.57;;;;;;;;;;5060636;28;20201;-84
2023/10/19 10:27:25;;;;;;;6.20;5.60;;;;;;;;;;5071907;28;20204;-83
2023/10/19 10:29:56;;;;;;;6.37;5.77;;;;;;;;;;5071590;28;20702;-81
2023/10/19 10:32:55;;;;;;;6.10;4.73;;;;;;;;;;5071872;28;20201;-82
2023/10/19 10:35:55;;;;;;;6.93;6.23;;;;;;;;;;5018388;28;20210;-80
2023/10/19 10:38:24;;;;;;;9.93;7.33;;;;;;;;;;5046087;28;20601;-81
2023/10/19 10:40:51;;;;;;;6.00;4.90;;;;;;;;;;5057414;28;20201;-82
2023/10/19 10:43:19;;;;;;;6.10;5.50;;;;;;;;;;5059601;28;20197;-78
2023/10/19 10:45:46;;;;;;;7.30;6.57;;;;;;;;;;5071779;28;20232;-84
2023/10/19 10:48:14;;;;;;;6.77;6.13;;;;;;;;;;5071514;28;20205;-83
2023/10/19 10:50:41;;;;;;;5.67;5.17;;;;;;;;;;5071120;28;20244;-84
2023/10/19 10:53:08;;;;;;;8.33;6.00;;;;;;;;;;5044438;28;20290;-79
2023/10/19 10:55:36;;;;;;;7.33;6.40;;;;;;;;;;5071095;28;20283;-77
2023/10/19 10:58:04;;;;;;;6.37;5.77;;;;;;;;;;5070571;28;20204;-79
2023/10/19 11:00:33;;;;;;;7.00;6.30;;;;;;;;;;5071192;28;20212;-81
2023/10/19 11:03:03;;;;;;;6.60;5.90;;;;;;;;;;5057309;28;20205;-80
2023/10/19 11:05:31;;;;;;;7.53;6.30;;;;;;;;;;5059113;28;20235;-83
2023/10/19 11:08:06;;;;;;;9.80;7.03;;;;;;;;;;5058142;28;20204;-78
2023/10/19 11:10:34;;;;;;;8.27;7.40;;;;;;;;;;5070843;28;20670;-81
2023/10/19 11:13:05;;;;;;;8.63;7.70;;;;;;;;;;5070798;28;20674;-82
2023/10/19 11:15:32;;;;;;;12.60;7.27;;;;;;;;;;5070694;28;20705;-80
2023/10/19 11:18:00;;;;;;;13.53;7.77;;;;;;;;;;5070899;28;20230;-80
2023/10/19 11:20:28;;;;;;;9.73;7.63;;;;;;;;;;5070355;28;20698;-77
2023/10/19 11:22:56;;;;;;;8.50;7.63;;;;;;;;;;5070498;28;20207;-77
2023/10/19 11:25:27;;;;;;;9.40;7.43;;;;;;;;;;5070443;28;20199;-78
2023/10/19 11:27:55;;;;;;;7.77;7.07;;;;;;;;;;5070083;28;20686;-76
2023/10/19 11:30:28;;;;;;;7.80;7.10;;;;;;;;;;5070203;28;20201;-75
2023/10/19 11:32:56;;;;;;;8.20;7.40;;;;;;;;;;5070429;28;20251;-76
2023/10/19 11:35:25;;;;;;;8.33;7.37;;;;;;;;;;5044713;28;20209;-75
2023/10/19 11:37:53;;;;;;;12.47;8.50;;;;;;;;;;5070051;28;20679;-75
2023/10/19 11:40:21;;;;;;;9.23;8.37;;;;;;;;;;5071130;28;20424;-76
2023/10/19 11:42:48;;;;;;;9.47;8.53;;;;;;;;;;5068559;28;20284;-75
2023/10/19 11:45:16;;;;;;;8.40;7.60;;;;;;;;;;5059225;28;20212;-75
2023/10/19 11:47:44;;;;;;;13.00;7.63;;;;;;;;;;5070060;28;20286;-75
2023/10/19 11:50:15;;;;;;;8.63;7.70;;;;;;;;;;5070431;28;20236;-75
2023/10/19 11:52:42;;;;;;;8.33;7.50;;;;;;;;;;5054769;28;20933;-75
2023/10/19 11:55:09;;;;;;;7.90;6.93;;;;;;;;;;5059058;28;20207;-74
2023/10/19 11:57:36;;;;;;;9.33;6.93;;;;;;;;;;5056619;28;20216;-75
2023/10/19 12:00:08;;;;;;;8.67;7.80;;;;;;;;;;5069589;28;20611;-78
2023/10/19 12:02:37;;;;;;;7.87;7.17;;;;;;;;;;5066152;28;20283;-78
2023/10/19 12:05:09;;;;;;;9.90;8.30;;;;;;;;;;5070619;28;20213;-78
2023/10/19 12:07:37;;;;;;;7.47;6.73;;;;;;;;;;5069894;28;20227;-79
2023/10/19 12:10:05;;;;;;;9.47;7.03;;;;;;;;;;5069684;28;20205;-79
2023/10/19 12:12:32;;;;;;;8.20;7.40;;;;;;;;;;5069926;28;20205;-78
2023/10/19 12:14:59;;;;;;;10.70;8.43;;;;;;;;;;5058534;28;20260;-79
2023/10/19 12:17:27;;;;;;;14.90;10.03;;;;;;;;;;5068236;28;20205;-79
2023/10/19 12:19:54;;;;;;;10.87;9.77;;;;;;;;;;5069342;28;20208;-79
2023/10/19 12:22:24;;;;;;;7.30;6.60;;;;;;;;;;5064216;28;20285;-80
2023/10/19 12:24:51;;;;;;;11.93;8.17;;;;;;;;;;5062343;28;20266;-79
2023/10/19 12:27:18;;;;;;;9.60;8.63;;;;;;;;;;5063829;28;20228;-79
2023/10/19 12:29:45;;;;;;;7.97;7.33;;;;;;;;;;5070396;28;20205;-80
2023/10/19 12:32:13;;;;;;;8.33;7.53;;;;;;;;;;5056738;28;20213;-82
2023/10/19 12:34:41;;;;;;;8.87;7.60;;;;;;;;;;5062066;28;20206;-81
2023/10/19 12:37:11;;;;;;;7.70;7.00;;;;;;;;;;5064284;28;20212;-81
2023/10/19 12:39:45;;;;;;;8.97;7.00;;;;;;;;;;5069451;28;20201;-80
2023/10/19 12:42:11;;;;;;;7.30;6.57;;;;;;;;;;5069998;28;20560;-81
2023/10/19 12:44:43;;;;;;;10.83;7.57;;;;;;;;;;5069558;28;20205;-81
2023/10/19 12:47:12;;;;;;;9.37;7.53;;;;;;;;;;5071179;28;20433;-80
2023/10/19 12:49:40;;;;;;;8.17;7.37;;;;;;;;;;5073133;28;20221;-80
2023/10/19 12:52:08;;;;;;;8.00;6.23;;;;;;;;;;5073206;28;20211;-81
2023/10/19 12:54:35;;;;;;;8.47;7.67;;;;;;;;;;5060125;28;20201;-83
2023/10/19 12:57:06;;;;;;;8.13;7.20;;;;;;;;;;5073389;28;20212;-82
2023/10/19 12:59:33;;;;;;;7.10;6.50;;;;;;;;;;5073182;28;20213;-81
2023/10/19 13:02:02;;;;;;;7.33;6.50;;;;;;;;;;5073120;28;20752;-82
2023/10/19 13:04:30;;;;;;;7.00;5.77;;;;;;;;;;5072995;28;20212;-82
2023/10/19 13:06:58;;;;;;;7.40;6.17;;;;;;;;;;5073210;28;20260;-83
2023/10/19 13:09:30;;;;;;;9.27;6.80;;;;;;;;;;5060318;28;20235;-83
2023/10/19 13:11:58;;;;;;;7.63;6.57;;;;;;;;;;5072848;28;20205;-81
2023/10/19 13:14:27;;;;;;;7.80;5.97;;;;;;;;;;5072729;28;20695;-80
2023/10/19 13:16:54;;;;;;;6.63;5.97;;;;;;;;;;5072760;28;20217;-78
2023/10/19 13:19:24;;;;;;;6.13;5.63;;;;;;;;;;5073317;28;20208;-83
2023/10/19 13:21:51;;;;;;;7.30;6.17;;;;;;;;;;5069857;28;20204;-79
2023/10/19 13:24:21;;;;;;;6.53;5.60;;;;;;;;;;5063629;28;20203;-81
2023/10/19 13:26:48;;;;;;;6.37;5.73;;;;;;;;;;5067248;28;20311;-81
2023/10/19 13:29:17;;;;;;;7.70;6.90;;;;;;;;;;5071951;28;20559;-81
2023/10/19 13:31:49;;;;;;;6.97;5.57;;;;;;;;;;5072576;28;20243;-81
2023/10/19 13:34:16;;;;;;;6.47;5.87;;;;;;;;;;5068307;28;20760;-79
2023/10/19 13:36:44;;;;;;;6.77;6.17;;;;;;;;;;5064176;28;20208;-81
2023/10/19 13:39:13;;;;;;;5.83;5.00;;;;;;;;;;5073136;28;20208;-81
2023/10/19 13:41:40;;;;;;;6.17;5.13;;;;;;;;;;5071888;28;20208;-82
2023/10/19 13:44:07;;;;;;;6.77;6.00;;;;;;;;;;5072350;28;20204;-83
2023/10/19 13:46:33;;;;;;;7.17;5.53;;;;;;;;;;5067727;28;20613;-82
2023/10/19 13:49:05;;;;;;;5.43;4.93;;;;;;;;;;5065242;28;20213;-80
2023/10/19 13:51:33;;;;;;;5.50;5.00;;;;;;;;;;5070666;28;20236;-83
2023/10/19 13:54:00;;;;;;;5.90;5.23;;;;;;;;;;5072475;28;20283;-83
2023/10/19 13:56:26;;;;;;;7.30;6.00;;;;;;;;;;5072251;28;20255;-82
2023/10/19 13:58:54;;;;;;;6.00;5.50;;;;;;;;;;5072106;28;20215;-82
2023/10/19 14:01:24;;;;;;;6.27;5.70;;;;;;;;;;5045872;28;20201;-82
2023/10/19 14:03:52;;;;;;;5.77;5.27;;;;;;;;;;5071843;28;20687;-78
2023/10/19 14:06:22;;;;;;;5.83;5.33;;;;;;;;;;5071656;28;20236;-78
2023/10/19 14:08:48;;;;;;;6.20;5.60;;;;;;;;;;5072480;28;20243;-81
2023/10/19 14:11:15;;;;;;;6.43;5.57;;;;;;;;;;5072011;28;20208;-83
2023/10/19 14:13:42;;;;;;;7.77;7.00;;;;;;;;;;5071647;28;20201;-77
2023/10/19 14:16:10;;;;;;;9.77;6.10;;;;;;;;;;5070648;28;20208;-78
2023/10/19 14:18:37;;;;;;;6.47;5.87;;;;;;;;;;5067636;28;20308;-78
2023/10/19 14:21:12;;;;;;;8.20;5.97;;;;;;;;;;5063042;28;20219;-78
2023/10/19 14:23:40;;;;;;;9.40;6.47;;;;;;;;;;5067896;28;20200;-81
2023/10/19 14:26:08;;;;;;;6.80;6.17;;;;;;;;;;5060156;28;20232;-82
2023/10/19 14:28:36;;;;;;;6.70;6.00;;;;;;;;;;5071227;28;20330;-83
2023/10/19 14:31:04;;;;;;;5.93;5.43;;;;;;;;;;5039365;28;20205;-82
2023/10/19 14:33:31;;;;;;;17.67;7.43;;;;;;;;;;5064423;28;20204;-74
2023/10/19 14:35:58;;;;;;;5.57;5.07;;;;;;;;;;5069663;28;20217;-75
2023/10/19 14:38:27;;;;;;;7.30;6.13;;;;;;;;;;5068663;28;20204;-74
2023/10/19 14:40:55;;;;;;;6.47;5.77;;;;;;;;;;5059848;28;20295;-83
2023/10/19 14:43:22;;;;;;;6.33;5.83;;;;;;;;;;5062528;28;20196;-74
2023/10/19 14:45:49;;;;;;;6.70;6.10;;;;;;;;;;5058530;28;20205;-75
2023/10/19 14:48:18;;;;;;;7.27;6.17;;;;;;;;;;5071362;28;20232;-73
2023/10/19 14:50:47;;;;;;;7.73;6.90;;;;;;;;;;5058966;28;20230;-74